»·PEaware :: N27JP KSNA-KSMO

N27JP :: KSNA-KSMO

FLIGHT INFORMATION

Flight Status: Arrived
Operator: Privately registered:
United States
More flights under this callsign
Pilot: Weston J. (31543)
Aircraft: CESSNA 172 SKYHAWK
(C172)
More flights by this aircraft type
Origin: KSNA John Wayne-Orange Co
United States
Destination: KSMO Santa Monica Mun
United States
More flights between these airports :: More routes between these airports
Route: SLI V8 POXKU V363 BAYJY V186 DARTS
File this flight plan on PilotEdge
Remarks: TEC route CSTP9
Altitude:
(Current/Filed)
6,000ft
Speed:
(Current/Filed)
110kts
Departed: 06-Dec-20 07:41 PM
Arrived: 06-Dec-20 08:22 PM
Distance/Time
Traveled:
36nm/0:41
Distance/Time
To Go:
Arrived

Flight Plot

Page will automatically refresh every two minutes.


Map Options




Map Legend


Flown Route
Filed Route
Departure Airport
Arrival Airport
Navaid (VOR, NDB)
Fix

Horizontal Profiles

Position Reports

Time Latitude Longitude Heading Altitude Ground
Speed
06-Dec-20 19:24 33.672856 -117.873100 207 60ft 0kts
06-Dec-20 19:25 33.672856 -117.873100 207 60ft 0kts
06-Dec-20 19:26 33.672856 -117.873100 207 60ft 0kts
06-Dec-20 19:27 33.672856 -117.873100 207 60ft 0kts
06-Dec-20 19:28 33.672856 -117.873100 207 60ft 0kts
06-Dec-20 19:29 33.672856 -117.873100 207 60ft 0kts
06-Dec-20 19:30 33.672856 -117.873100 207 60ft 0kts
06-Dec-20 19:31 33.672856 -117.873100 207 60ft 0kts
06-Dec-20 19:32 33.672856 -117.873100 207 60ft 0kts
06-Dec-20 19:33 33.672856 -117.873100 207 60ft 0kts
06-Dec-20 19:34 33.672856 -117.873100 207 60ft 0kts
06-Dec-20 19:35 33.672665 -117.872842 114 60ft 6kts
06-Dec-20 19:36 33.675741 -117.870289 27 60ft 23kts
06-Dec-20 19:37 33.681157 -117.867006 48 60ft 11kts
06-Dec-20 19:38 33.681225 -117.866448 111 60ft 0kts
06-Dec-20 19:39 33.680918 -117.865827 136 60ft 10kts
06-Dec-20 19:40 33.665152 -117.875553 209 333ft 107kts
06-Dec-20 19:41 33.644374 -117.902055 231 973ft 112kts
06-Dec-20 19:42 33.624836 -117.930306 231 1718ft 107kts
06-Dec-20 19:43 33.616119 -117.960155 316 2516ft 104kts
06-Dec-20 19:44 33.642147 -117.955666 20 3304ft 91kts
06-Dec-20 19:45 33.666033 -117.944084 21 4140ft 87kts
06-Dec-20 19:46 33.688462 -117.933108 20 4950ft 84kts
06-Dec-20 19:47 33.709550 -117.922466 20 5742ft 80kts
06-Dec-20 19:48 33.734022 -117.909937 23 5991ft 110kts
06-Dec-20 19:49 33.761943 -117.895912 22 5988ft 108kts
06-Dec-20 19:50 33.789786 -117.881917 22 5988ft 108kts
06-Dec-20 19:51 33.817508 -117.867977 22 5988ft 108kts
06-Dec-20 19:52 33.837876 -117.844287 74 5993ft 112kts
06-Dec-20 19:53 33.846525 -117.808134 73 5989ft 112kts
06-Dec-20 19:54 33.866652 -117.785481 6 5986ft 106kts
06-Dec-20 19:55 33.896266 -117.783403 1 5990ft 107kts
06-Dec-20 19:56 33.926026 -117.783237 359 5990ft 107kts
06-Dec-20 19:57 33.955854 -117.783636 359 5994ft 107kts
06-Dec-20 19:58 33.985772 -117.784206 358 5998ft 108kts
06-Dec-20 19:59 34.009245 -117.800061 300 5999ft 103kts
06-Dec-20 20:00 34.021426 -117.831582 294 6005ft 104kts
06-Dec-20 20:01 34.032212 -117.864171 292 6006ft 104kts
06-Dec-20 20:02 34.042330 -117.897083 291 6005ft 104kts
06-Dec-20 20:03 34.052462 -117.930076 291 6003ft 105kts
06-Dec-20 20:04 34.062641 -117.963138 291 6001ft 105kts
06-Dec-20 20:05 34.072829 -117.996261 290 5998ft 105kts
06-Dec-20 20:06 34.083069 -118.029585 290 5995ft 106kts
06-Dec-20 20:07 34.093308 -118.062946 290 6010ft 106kts
06-Dec-20 20:08 34.103584 -118.096459 290 6007ft 106kts
06-Dec-20 20:09 34.113810 -118.129849 291 6008ft 105kts
06-Dec-20 20:10 34.124842 -118.165624 292 5537ft 119kts
06-Dec-20 20:11 34.136173 -118.202341 293 4779ft 96kts
06-Dec-20 20:12 34.144363 -118.229668 290 4314ft 78kts
06-Dec-20 20:13 34.153334 -118.261262 276 4298ft 111kts
06-Dec-20 20:14 34.136592 -118.295461 233 3773ft 120kts
06-Dec-20 20:15 34.114740 -118.323860 224 3130ft 114kts
06-Dec-20 20:16 34.093363 -118.348417 226 2934ft 102kts
06-Dec-20 20:17 34.074728 -118.377295 239 2397ft 114kts
06-Dec-20 20:18 34.056243 -118.403513 228 1576ft 89kts
06-Dec-20 20:19 34.037979 -118.424984 226 943ft 78kts
06-Dec-20 20:21 34.022469 -118.443420 227 338ft 68kts
06-Dec-20 20:22 34.014828 -118.453050 305 178ft 13kts
06-Dec-20 20:23 34.015716 -118.453028 324 178ft 3kts
06-Dec-20 20:24 34.015734 -118.453044 324 178ft 0kts

Navigation Log

Ident Type
Flight plan parsing failed, navigation log unavailable